createdAt,value
2022-08-03T00:03:01.659Z,23.00
2022-08-03T00:06:04.863Z,23.00
2022-08-03T00:09:11.724Z,23.00
2022-08-03T00:12:19.546Z,22.90
2022-08-03T00:15:25.771Z,23.00
2022-08-03T00:18:32.410Z,23.00
2022-08-03T00:21:40.071Z,22.90
2022-08-03T00:24:46.679Z,23.00
2022-08-03T00:27:53.171Z,22.90
2022-08-03T00:31:00.103Z,22.90
2022-08-03T00:34:06.871Z,23.00
2022-08-03T00:37:16.548Z,23.00
2022-08-03T00:40:23.291Z,23.00
2022-08-03T00:43:29.485Z,22.90
2022-08-03T00:46:21.273Z,22.90
2022-08-03T00:49:28.859Z,23.00
2022-08-03T00:52:17.946Z,22.90
2022-08-03T00:55:24.611Z,22.90
2022-08-03T00:58:31.625Z,23.00
2022-08-03T01:01:38.828Z,22.90
2022-08-03T01:04:45.637Z,22.90
2022-08-03T01:08:03.248Z,22.90
2022-08-03T01:11:13.357Z,22.90
2022-08-03T01:14:26.355Z,22.90
2022-08-03T01:17:35.357Z,22.90
2022-08-03T01:20:44.874Z,22.90
2022-08-03T01:24:00.665Z,22.90
2022-08-03T01:27:10.236Z,22.90
2022-08-03T01:30:18.219Z,22.90
2022-08-03T01:33:29.381Z,22.90
2022-08-03T01:36:37.507Z,22.90
2022-08-03T01:39:45.458Z,22.90
2022-08-03T01:42:52.061Z,22.90
2022-08-03T01:46:01.254Z,22.90
2022-08-03T01:48:49.505Z,22.90
2022-08-03T01:52:03.635Z,22.90
2022-08-03T01:55:11.427Z,22.80
2022-08-03T01:58:18.367Z,22.80
2022-08-03T02:01:26.435Z,22.80
2022-08-03T02:04:54.551Z,22.80
2022-08-03T02:08:01.470Z,22.80
2022-08-03T02:11:08.357Z,22.80
2022-08-03T02:14:03.562Z,22.80
2022-08-03T02:17:11.580Z,22.80
2022-08-03T02:20:18.215Z,22.80
2022-08-03T02:23:06.682Z,22.80
2022-08-03T02:26:08.441Z,22.80
2022-08-03T02:29:17.314Z,22.80
2022-08-03T02:32:08.440Z,22.70
2022-08-03T02:35:12.452Z,22.70
2022-08-03T02:38:20.488Z,22.70
2022-08-03T02:41:09.105Z,22.70
2022-08-03T02:44:15.638Z,22.70
2022-08-03T02:47:22.136Z,22.70
2022-08-03T02:50:30.359Z,22.70
2022-08-03T02:53:24.342Z,22.70
2022-08-03T02:56:30.794Z,22.70
2022-08-03T02:59:37.861Z,22.70
2022-08-03T03:02:31.550Z,22.70
2022-08-03T03:05:53.716Z,22.70
2022-08-03T03:08:47.684Z,22.70
2022-08-03T03:11:54.452Z,22.60
2022-08-03T03:15:00.936Z,22.70
2022-08-03T03:18:07.591Z,22.70
2022-08-03T03:21:11.109Z,22.70
2022-08-03T03:24:03.493Z,22.60
2022-08-03T03:27:10.108Z,22.60
2022-08-03T03:30:23.949Z,22.60
2022-08-03T03:33:11.470Z,22.60
2022-08-03T03:36:19.476Z,22.60
2022-08-03T03:39:27.700Z,22.60
2022-08-03T03:42:35.956Z,22.60
2022-08-03T03:45:42.561Z,22.60
2022-08-03T03:48:49.202Z,22.60
2022-08-03T03:51:55.989Z,22.60
2022-08-03T03:55:04.505Z,22.60
2022-08-03T03:58:10.853Z,22.60
2022-08-03T04:01:17.938Z,22.60
2022-08-03T04:04:41.998Z,22.60
2022-08-03T04:08:17.385Z,22.50
2022-08-03T04:11:30.185Z,22.60
2022-08-03T04:14:38.453Z,22.60
2022-08-03T04:17:45.113Z,22.50
2022-08-03T04:20:52.837Z,22.60
2022-08-03T04:24:01.691Z,22.60
2022-08-03T04:27:10.562Z,22.60
2022-08-03T04:30:12.829Z,22.60
2022-08-03T04:33:17.477Z,22.60
2022-08-03T04:36:26.258Z,22.60
2022-08-03T04:39:15.764Z,22.60
2022-08-03T04:42:23.774Z,22.60
2022-08-03T04:45:30.541Z,22.60
2022-08-03T04:48:36.969Z,22.60
2022-08-03T04:51:24.506Z,22.70
2022-08-03T04:54:31.578Z,22.70
2022-08-03T04:57:40.093Z,22.70
2022-08-03T05:00:28.316Z,22.70
2022-08-03T05:03:23.815Z,22.70
2022-08-03T05:06:31.188Z,22.70
2022-08-03T05:09:50.097Z,22.70
2022-08-03T05:12:40.214Z,22.70
2022-08-03T05:15:47.146Z,22.70
2022-08-03T05:18:54.087Z,22.70
2022-08-03T05:21:52.649Z,22.70
2022-08-03T05:24:59.686Z,22.70
2022-08-03T05:28:07.639Z,22.70
2022-08-03T05:31:04.223Z,22.70
2022-08-03T05:34:10.837Z,22.70
2022-08-03T05:37:17.359Z,22.80
2022-08-03T05:40:23.741Z,22.80
2022-08-03T05:43:32.009Z,22.80
2022-08-03T05:46:38.483Z,22.80
2022-08-03T05:49:44.988Z,22.80
2022-08-03T05:52:32.879Z,22.80
2022-08-03T05:55:20.704Z,22.80
2022-08-03T05:58:08.802Z,22.80
2022-08-03T06:01:00.418Z,22.80
2022-08-03T06:03:48.354Z,22.80
2022-08-03T06:06:47.518Z,22.80
2022-08-03T06:10:35.482Z,22.80
2022-08-03T06:13:03.429Z,22.80
2022-08-03T06:16:11.553Z,22.80
2022-08-03T06:19:18.426Z,22.80
2022-08-03T06:22:06.569Z,22.80
2022-08-03T06:24:54.756Z,22.80
2022-08-03T06:27:42.760Z,22.80
2022-08-03T06:30:30.504Z,22.80
2022-08-03T06:33:20.060Z,22.90
2022-08-03T06:36:08.055Z,22.90
2022-08-03T06:39:00.431Z,22.90
2022-08-03T06:41:47.894Z,22.90
2022-08-03T06:44:37.589Z,22.90
2022-08-03T06:47:25.371Z,22.90
2022-08-03T06:50:16.874Z,22.90
2022-08-03T06:53:06.384Z,22.90
2022-08-03T06:55:55.167Z,23.00
2022-08-03T06:58:43.039Z,23.00
2022-08-03T07:01:31.250Z,23.00
2022-08-03T07:04:19.188Z,23.00
2022-08-03T07:07:08.770Z,23.00
2022-08-03T07:10:15.645Z,23.00
2022-08-03T07:13:22.200Z,23.10
2022-08-03T07:16:28.635Z,23.10
2022-08-03T07:19:35.349Z,23.10
2022-08-03T07:22:43.208Z,23.10
2022-08-03T07:25:50.822Z,23.10
2022-08-03T07:28:57.418Z,23.20
2022-08-03T07:31:45.790Z,23.20
2022-08-03T07:34:55.810Z,23.20
2022-08-03T07:38:01.678Z,23.30
2022-08-03T07:40:49.415Z,23.30
2022-08-03T07:43:56.069Z,23.30
2022-08-03T07:47:04.060Z,23.30
2022-08-03T07:50:11.059Z,23.40
2022-08-03T07:52:59.744Z,23.40
2022-08-03T07:55:49.116Z,23.40
2022-08-03T07:58:37.454Z,23.40
2022-08-03T08:01:44.033Z,23.40
2022-08-03T08:04:50.623Z,23.40
2022-08-03T08:07:57.133Z,23.50
2022-08-03T08:11:05.107Z,23.50
2022-08-03T08:14:12.455Z,23.50
2022-08-03T08:17:19.874Z,23.60
2022-08-03T08:20:30.552Z,23.60
2022-08-03T08:23:42.884Z,23.60
2022-08-03T08:26:32.520Z,23.60
2022-08-03T08:29:23.076Z,23.70
2022-08-03T08:32:11.253Z,23.60
2022-08-03T08:34:59.295Z,23.70
2022-08-03T08:37:51.000Z,23.70
2022-08-03T08:40:39.307Z,23.70
2022-08-03T08:43:29.020Z,23.70
2022-08-03T08:46:35.758Z,23.70
2022-08-03T08:49:24.498Z,23.80
2022-08-03T08:52:25.464Z,23.80
2022-08-03T08:56:00.056Z,23.80
2022-08-03T08:58:47.905Z,23.80
2022-08-03T09:01:37.921Z,23.90
2022-08-03T09:04:26.129Z,23.90
2022-08-03T09:07:33.315Z,23.90
2022-08-03T09:10:40.266Z,23.90
2022-08-03T09:13:48.538Z,23.90
2022-08-03T09:17:01.903Z,23.90
2022-08-03T09:20:10.765Z,23.90
2022-08-03T09:23:58.965Z,23.90
2022-08-03T09:26:52.164Z,23.90
2022-08-03T09:30:03.398Z,24.00
2022-08-03T09:33:34.772Z,24.00
2022-08-03T09:36:45.759Z,24.00
2022-08-03T09:39:53.975Z,24.00
2022-08-03T09:43:02.138Z,24.00
2022-08-03T09:46:11.945Z,24.00
2022-08-03T09:49:19.967Z,24.00
2022-08-03T09:52:48.341Z,24.00
2022-08-03T09:56:33.598Z,24.00
2022-08-03T09:59:28.917Z,24.10
2022-08-03T10:02:38.708Z,24.10
2022-08-03T10:05:46.782Z,24.10
2022-08-03T10:09:07.050Z,24.10
2022-08-03T10:12:15.230Z,24.10
2022-08-03T10:16:22.594Z,24.20
2022-08-03T10:18:54.298Z,24.20
2022-08-03T10:22:04.440Z,24.20
2022-08-03T10:25:13.697Z,24.20
2022-08-03T10:28:21.897Z,24.20
2022-08-03T10:31:32.259Z,24.30
2022-08-03T10:34:44.473Z,24.30
2022-08-03T10:37:56.575Z,24.30
2022-08-03T10:41:05.548Z,24.30
2022-08-03T10:44:16.594Z,24.30
2022-08-03T10:47:24.778Z,24.40
2022-08-03T10:50:33.958Z,24.40
2022-08-03T10:53:44.140Z,24.40
2022-08-03T10:57:19.990Z,24.40
2022-08-03T11:00:30.291Z,24.50
2022-08-03T11:04:17.244Z,24.50
2022-08-03T11:07:26.677Z,24.50
2022-08-03T11:10:34.619Z,24.50
2022-08-03T11:13:42.558Z,24.50
2022-08-03T11:16:53.096Z,24.50
2022-08-03T11:20:00.865Z,24.60
2022-08-03T11:23:10.294Z,24.60
2022-08-03T11:26:19.034Z,24.60
2022-08-03T11:29:30.627Z,24.70
2022-08-03T11:33:01.333Z,24.70
2022-08-03T11:36:09.545Z,24.80
2022-08-03T11:39:18.852Z,24.80
2022-08-03T11:42:46.911Z,24.80
2022-08-03T11:45:58.825Z,24.80
2022-08-03T11:49:10.711Z,24.90
2022-08-03T11:52:19.576Z,24.90
2022-08-03T11:55:37.066Z,24.90
2022-08-03T11:59:01.263Z,24.90
2022-08-03T12:02:17.754Z,25.00
2022-08-03T12:05:51.174Z,25.00
2022-08-03T12:09:00.094Z,25.00
2022-08-03T12:12:09.631Z,25.10
2022-08-03T12:15:17.832Z,25.10
2022-08-03T12:18:26.323Z,25.10
2022-08-03T12:21:34.220Z,25.10
2022-08-03T12:24:43.375Z,25.20
2022-08-03T12:27:52.738Z,25.20
2022-08-03T12:31:03.247Z,25.20
2022-08-03T12:34:11.542Z,25.30
2022-08-03T12:37:21.992Z,25.30
2022-08-03T12:40:32.017Z,25.30
2022-08-03T12:43:48.842Z,25.40
2022-08-03T12:46:59.047Z,25.40
2022-08-03T12:50:08.069Z,25.40
2022-08-03T12:53:16.079Z,25.40
2022-08-03T12:56:24.269Z,25.40
2022-08-03T12:59:35.488Z,25.50
2022-08-03T13:03:00.536Z,25.50
2022-08-03T13:06:17.106Z,25.50
2022-08-03T13:09:26.229Z,25.40
2022-08-03T13:12:36.134Z,25.40
2022-08-03T13:15:47.733Z,25.40
2022-08-03T13:18:56.353Z,25.40
2022-08-03T13:22:12.381Z,25.40
2022-08-03T13:25:20.874Z,25.40
2022-08-03T13:28:29.176Z,25.40
2022-08-03T13:31:38.771Z,25.40
2022-08-03T13:34:59.117Z,25.40
2022-08-03T13:38:07.325Z,25.40
2022-08-03T13:41:16.163Z,25.40
2022-08-03T13:44:29.032Z,25.40
2022-08-03T13:47:39.111Z,25.40
2022-08-03T13:50:47.279Z,25.40
2022-08-03T13:53:55.167Z,25.40
2022-08-03T13:58:06.683Z,25.50
2022-08-03T14:00:30.948Z,25.50
2022-08-03T14:03:40.351Z,25.50
2022-08-03T14:06:49.189Z,25.50
2022-08-03T14:09:57.058Z,25.50
2022-08-03T14:13:05.208Z,25.50
2022-08-03T14:16:13.401Z,25.50
2022-08-03T14:19:26.617Z,25.50
2022-08-03T14:22:35.092Z,25.60
2022-08-03T14:25:50.424Z,25.60
2022-08-03T14:29:00.271Z,25.60
2022-08-03T14:32:11.974Z,25.60
2022-08-03T14:35:21.955Z,25.60
2022-08-03T14:38:29.747Z,25.60
2022-08-03T14:41:38.041Z,25.70
2022-08-03T14:44:46.181Z,25.70
2022-08-03T14:49:02.535Z,25.70
2022-08-03T14:51:23.821Z,25.80
2022-08-03T14:54:31.966Z,25.80
2022-08-03T14:57:39.961Z,25.80
2022-08-03T15:00:47.911Z,25.80
2022-08-03T15:03:56.270Z,25.80
2022-08-03T15:07:05.908Z,25.80
2022-08-03T15:10:13.759Z,25.80
2022-08-03T15:13:21.687Z,25.80
2022-08-03T15:16:30.184Z,25.80
2022-08-03T15:20:01.639Z,25.80
2022-08-03T15:23:09.481Z,25.80
2022-08-03T15:26:30.738Z,25.80
2022-08-03T15:30:04.968Z,25.90
2022-08-03T15:33:10.138Z,25.90
2022-08-03T15:36:18.498Z,25.90
2022-08-03T15:39:11.304Z,26.00
2022-08-03T15:42:18.103Z,26.00
2022-08-03T15:45:25.118Z,26.00
2022-08-03T15:48:32.336Z,26.00
2022-08-03T15:51:39.262Z,26.00
2022-08-03T15:54:48.093Z,26.00
2022-08-03T15:59:03.928Z,26.00
2022-08-03T16:01:21.468Z,26.00
2022-08-03T16:04:27.935Z,26.10
2022-08-03T16:07:36.712Z,26.10
2022-08-03T16:10:28.650Z,26.10
2022-08-03T16:13:16.227Z,26.20
2022-08-03T16:16:23.291Z,26.20
2022-08-03T16:19:11.052Z,26.20
2022-08-03T16:22:19.542Z,26.20
2022-08-03T16:25:16.204Z,26.20
2022-08-03T16:28:13.071Z,26.20
2022-08-03T16:31:01.176Z,26.20
2022-08-03T16:33:49.124Z,26.20
2022-08-03T16:36:37.074Z,26.30
2022-08-03T16:39:24.865Z,26.30
2022-08-03T16:42:12.970Z,26.30
2022-08-03T16:45:01.985Z,26.30
2022-08-03T16:48:01.721Z,26.30
2022-08-03T16:50:54.531Z,26.30
2022-08-03T16:54:05.764Z,26.30
2022-08-03T16:56:50.754Z,26.30
2022-08-03T16:59:39.067Z,26.30
2022-08-03T17:02:29.925Z,26.30
2022-08-03T17:05:17.942Z,26.40
2022-08-03T17:08:09.009Z,26.40
2022-08-03T17:11:00.845Z,26.50
2022-08-03T17:13:50.209Z,26.50
2022-08-03T17:16:39.083Z,26.60
2022-08-03T17:19:34.980Z,26.60
2022-08-03T17:22:28.393Z,26.60
2022-08-03T17:25:22.115Z,26.70
2022-08-03T17:28:48.701Z,26.70
2022-08-03T17:31:48.674Z,26.70
2022-08-03T17:34:39.322Z,26.70
2022-08-03T17:37:58.429Z,26.70
2022-08-03T17:40:35.339Z,26.70
2022-08-03T17:44:15.974Z,26.70
2022-08-03T17:46:34.178Z,26.70
2022-08-03T17:49:24.854Z,26.80
2022-08-03T17:52:36.048Z,26.80
2022-08-03T17:55:57.326Z,26.80
2022-08-03T17:58:41.506Z,26.80
2022-08-03T18:02:00.651Z,26.70
2022-08-03T18:05:00.743Z,26.70
2022-08-03T18:08:00.875Z,26.70
2022-08-03T18:10:50.227Z,26.70
2022-08-03T18:13:40.838Z,26.70
2022-08-03T18:16:32.369Z,26.70
2022-08-03T18:19:22.018Z,26.70
2022-08-03T18:22:30.494Z,26.60
2022-08-03T18:25:23.292Z,26.70
2022-08-03T18:28:29.039Z,26.60
2022-08-03T18:31:33.077Z,26.70
2022-08-03T18:34:32.990Z,26.60
2022-08-03T18:37:24.995Z,26.60
2022-08-03T18:40:13.270Z,26.60
2022-08-03T18:43:10.770Z,26.60
2022-08-03T18:45:59.380Z,26.60
2022-08-03T18:48:52.156Z,26.60
2022-08-03T18:51:43.179Z,26.60
2022-08-03T18:55:02.715Z,26.60
2022-08-03T18:58:00.944Z,26.60
2022-08-03T19:00:54.220Z,26.60
2022-08-03T19:03:47.641Z,26.60
2022-08-03T19:07:03.462Z,26.60
2022-08-03T19:10:11.076Z,26.60
2022-08-03T19:13:30.903Z,26.60
2022-08-03T19:16:44.206Z,26.60
2022-08-03T19:19:52.271Z,26.60
2022-08-03T19:22:59.512Z,26.50
2022-08-03T19:26:06.922Z,26.50
2022-08-03T19:29:58.515Z,26.50
2022-08-03T19:33:02.524Z,26.50
2022-08-03T19:36:10.830Z,26.50
2022-08-03T19:38:59.468Z,26.50
2022-08-03T19:41:51.441Z,26.50
2022-08-03T19:45:01.853Z,26.50
2022-08-03T19:48:06.757Z,26.40
2022-08-03T19:51:14.506Z,26.50
2022-08-03T19:54:25.554Z,26.40
2022-08-03T19:57:38.678Z,26.40
2022-08-03T20:00:48.686Z,26.40
2022-08-03T20:03:55.464Z,26.40
2022-08-03T20:07:03.830Z,26.30
2022-08-03T20:10:10.585Z,26.30
2022-08-03T20:13:19.357Z,26.30
2022-08-03T20:16:26.382Z,26.20
2022-08-03T20:19:35.162Z,26.20
2022-08-03T20:22:28.458Z,26.20
2022-08-03T20:25:20.852Z,26.10
2022-08-03T20:28:13.819Z,26.10
2022-08-03T20:31:14.839Z,26.10
2022-08-03T20:34:22.819Z,26.10
2022-08-03T20:37:30.791Z,26.10
2022-08-03T20:40:18.823Z,26.10
2022-08-03T20:43:25.243Z,26.10
2022-08-03T20:46:50.218Z,26.10
2022-08-03T20:50:01.809Z,26.10
2022-08-03T20:53:09.853Z,26.10
2022-08-03T20:56:20.358Z,26.10
2022-08-03T20:59:33.644Z,26.10
2022-08-03T21:02:31.220Z,26.10
2022-08-03T21:05:51.148Z,26.10
2022-08-03T21:09:05.025Z,26.10
2022-08-03T21:12:09.345Z,26.10
2022-08-03T21:16:02.345Z,26.00
2022-08-03T21:18:45.665Z,26.00
2022-08-03T21:21:52.502Z,26.00
2022-08-03T21:25:01.977Z,25.90
2022-08-03T21:28:08.611Z,25.90
2022-08-03T21:31:22.327Z,25.90
2022-08-03T21:34:32.277Z,25.90
2022-08-03T21:37:39.335Z,25.90
2022-08-03T21:40:48.079Z,26.00
2022-08-03T21:43:37.103Z,26.00
2022-08-03T21:46:24.918Z,26.10
2022-08-03T21:50:06.720Z,26.00
2022-08-03T21:52:20.966Z,26.10
2022-08-03T21:55:09.247Z,26.10
2022-08-03T21:58:07.669Z,26.00
2022-08-03T22:00:55.716Z,25.90
2022-08-03T22:03:49.789Z,25.80
2022-08-03T22:06:43.765Z,25.70
2022-08-03T22:09:34.148Z,25.60
2022-08-03T22:12:22.828Z,25.50
2022-08-03T22:15:12.791Z,25.40
2022-08-03T22:18:03.627Z,25.30
2022-08-03T22:20:52.146Z,25.20
2022-08-03T22:23:43.353Z,25.10
2022-08-03T22:26:32.505Z,25.10
2022-08-03T22:29:23.727Z,25.00
2022-08-03T22:32:12.735Z,24.90
2022-08-03T22:35:01.009Z,24.90
2022-08-03T22:38:08.106Z,24.80
2022-08-03T22:41:15.397Z,24.80
2022-08-03T22:44:04.588Z,24.70
2022-08-03T22:46:52.731Z,24.60
2022-08-03T22:49:41.705Z,24.60
2022-08-03T22:52:29.434Z,24.50
2022-08-03T22:55:18.907Z,24.50
2022-08-03T22:58:16.065Z,24.40
2022-08-03T23:01:07.168Z,24.40
2022-08-03T23:04:02.340Z,24.50
2022-08-03T23:06:52.013Z,24.60
2022-08-03T23:09:40.036Z,24.60
2022-08-03T23:12:29.456Z,24.70
2022-08-03T23:15:31.177Z,24.70
2022-08-03T23:18:38.974Z,24.80
2022-08-03T23:22:00.313Z,24.80
2022-08-03T23:24:55.782Z,24.80
2022-08-03T23:28:05.674Z,24.80
2022-08-03T23:31:13.184Z,24.80
2022-08-03T23:34:20.366Z,24.90
2022-08-03T23:37:27.325Z,24.80
2022-08-03T23:40:35.290Z,24.80
2022-08-03T23:43:50.777Z,24.80
2022-08-03T23:46:39.842Z,24.80
2022-08-03T23:49:27.646Z,24.90
2022-08-03T23:52:19.886Z,24.90
2022-08-03T23:55:17.589Z,24.90
2022-08-03T23:58:12.103Z,24.90
